createdAt,value
2019-02-23T00:01:27.562Z,0.57
2019-02-23T00:03:55.072Z,0.50
2019-02-23T00:06:29.784Z,0.50
2019-02-23T00:08:51.695Z,0.57
2019-02-23T00:11:19.007Z,0.47
2019-02-23T00:13:46.211Z,0.33
2019-02-23T00:16:13.525Z,0.50
2019-02-23T00:18:40.837Z,0.43
2019-02-23T00:21:08.239Z,0.60
2019-02-23T00:23:35.452Z,0.57
2019-02-23T00:26:03.077Z,0.50
2019-02-23T00:28:30.264Z,0.50
2019-02-23T00:30:57.693Z,0.70
2019-02-23T00:33:24.876Z,0.43
2019-02-23T00:35:52.170Z,0.50
2019-02-23T00:38:19.459Z,0.40
2019-02-23T00:40:46.797Z,0.43
2019-02-23T00:43:14.071Z,0.50
2019-02-23T00:45:41.515Z,0.50
2019-02-23T00:48:08.840Z,0.53
2019-02-23T00:50:36.303Z,0.83
2019-02-23T00:53:03.632Z,0.50
2019-02-23T00:55:30.912Z,0.50
2019-02-23T00:57:58.107Z,0.43
2019-02-23T01:00:25.391Z,0.50
2019-02-23T01:02:52.603Z,0.50
2019-02-23T01:05:19.776Z,0.30
2019-02-23T01:07:46.963Z,0.40
2019-02-23T01:10:14.634Z,0.63
2019-02-23T01:12:41.957Z,0.40
2019-02-23T01:15:10.471Z,0.50
2019-02-23T01:17:38.184Z,0.40
2019-02-23T01:20:07.776Z,0.50
2019-02-23T01:22:35.160Z,0.60
2019-02-23T01:25:02.512Z,0.50
2019-02-23T01:27:29.812Z,0.50
2019-02-23T01:29:57.172Z,0.43
2019-02-23T01:32:24.827Z,0.50
2019-02-23T01:34:56.552Z,0.50
2019-02-23T01:37:23.712Z,0.60
2019-02-23T01:39:51.259Z,0.93
2019-02-23T01:42:18.725Z,0.70
2019-02-23T01:44:46.069Z,0.60
2019-02-23T01:47:13.396Z,0.70
2019-02-23T01:49:40.724Z,0.70
2019-02-23T01:52:10.658Z,0.70
2019-02-23T01:54:38.451Z,0.67
2019-02-23T01:57:05.848Z,1.00
2019-02-23T01:59:33.137Z,0.60
2019-02-23T02:02:00.317Z,0.80
2019-02-23T02:04:27.512Z,0.70
2019-02-23T02:06:54.692Z,0.60
2019-02-23T02:09:22.209Z,0.70
2019-02-23T02:11:49.705Z,0.60
2019-02-23T02:14:16.923Z,0.70
2019-02-23T02:16:44.318Z,0.50
2019-02-23T02:19:11.624Z,0.63
2019-02-23T02:21:38.992Z,0.60
2019-02-23T02:24:06.331Z,0.80
2019-02-23T02:26:33.635Z,0.70
2019-02-23T02:29:00.980Z,0.70
2019-02-23T02:31:28.279Z,0.60
2019-02-23T02:34:09.486Z,0.90
2019-02-23T02:36:38.754Z,0.80
2019-02-23T02:39:09.328Z,0.80
2019-02-23T02:41:36.788Z,0.53
2019-02-23T02:44:04.178Z,0.70
2019-02-23T02:46:31.483Z,0.70
2019-02-23T02:48:58.764Z,0.73
2019-02-23T02:51:26.052Z,0.70
2019-02-23T02:53:53.387Z,0.60
2019-02-23T02:57:24.198Z,0.97
2019-02-23T02:59:51.595Z,0.77
2019-02-23T03:02:18.893Z,0.83
2019-02-23T03:04:46.438Z,0.83
2019-02-23T03:07:13.724Z,0.90
2019-02-23T03:09:41.034Z,1.00
2019-02-23T03:12:08.451Z,0.90
2019-02-23T03:14:35.876Z,1.00
2019-02-23T03:17:03.262Z,0.90
2019-02-23T03:19:30.476Z,1.00
2019-02-23T03:21:57.766Z,0.80
2019-02-23T03:24:25.095Z,0.80
2019-02-23T03:26:52.365Z,0.83
2019-02-23T03:29:19.877Z,0.87
2019-02-23T03:31:47.186Z,1.00
2019-02-23T03:34:14.396Z,0.83
2019-02-23T03:36:41.697Z,0.87
2019-02-23T03:39:09.037Z,1.10
2019-02-23T03:41:36.428Z,1.00
2019-02-23T03:44:03.827Z,1.30
2019-02-23T03:46:31.108Z,1.00
2019-02-23T03:48:58.301Z,1.00
2019-02-23T03:51:25.688Z,0.90
2019-02-23T03:53:52.872Z,0.87
2019-02-23T03:56:20.079Z,1.07
2019-02-23T03:58:47.380Z,1.03
2019-02-23T04:01:14.582Z,1.10
2019-02-23T04:03:41.972Z,1.30
2019-02-23T04:06:09.203Z,1.20
2019-02-23T04:08:36.584Z,0.97
2019-02-23T04:11:03.776Z,1.10
2019-02-23T04:13:31.068Z,1.00
2019-02-23T04:15:58.257Z,1.13
2019-02-23T04:18:25.443Z,1.00
2019-02-23T04:21:01.425Z,1.10
2019-02-23T04:23:21.913Z,0.87
2019-02-23T04:25:49.427Z,1.10
2019-02-23T04:28:16.632Z,1.40
2019-02-23T04:30:43.925Z,1.10
2019-02-23T04:33:11.432Z,1.03
2019-02-23T04:35:40.241Z,1.27
2019-02-23T04:38:08.044Z,1.40
2019-02-23T04:40:35.423Z,1.30
2019-02-23T04:43:02.737Z,1.33
2019-02-23T04:45:30.030Z,1.20
2019-02-23T04:47:57.210Z,1.13
2019-02-23T04:50:24.420Z,1.47
2019-02-23T04:52:51.697Z,1.27
2019-02-23T04:55:19.075Z,1.40
2019-02-23T04:57:46.510Z,1.40
2019-02-23T05:00:13.851Z,1.30
2019-02-23T05:02:41.343Z,1.33
2019-02-23T05:05:09.247Z,1.40
2019-02-23T05:07:36.648Z,1.27
2019-02-23T05:10:04.222Z,1.30
2019-02-23T05:12:31.547Z,1.23
2019-02-23T05:14:58.725Z,1.30
2019-02-23T05:17:26.041Z,1.40
2019-02-23T05:19:53.440Z,1.23
2019-02-23T05:22:20.773Z,1.50
2019-02-23T05:24:48.062Z,1.50
2019-02-23T05:27:15.628Z,1.20
2019-02-23T05:29:42.957Z,1.30
2019-02-23T05:32:10.338Z,1.40
2019-02-23T05:34:37.962Z,1.50
2019-02-23T05:37:05.292Z,1.40
2019-02-23T05:39:33.716Z,1.33
2019-02-23T05:42:01.037Z,1.50
2019-02-23T05:44:28.212Z,1.70
2019-02-23T05:46:55.644Z,1.40
2019-02-23T05:49:22.929Z,1.90
2019-02-23T05:51:50.460Z,1.60
2019-02-23T05:54:17.735Z,1.63
2019-02-23T05:56:45.084Z,1.60
2019-02-23T05:59:12.276Z,1.60
2019-02-23T06:01:39.842Z,1.43
2019-02-23T06:04:07.130Z,1.50
2019-02-23T06:06:34.453Z,1.47
2019-02-23T06:09:02.010Z,1.70
2019-02-23T06:11:31.057Z,1.73
2019-02-23T06:13:58.354Z,1.50
2019-02-23T06:16:25.663Z,1.70
2019-02-23T06:19:12.653Z,1.60
2019-02-23T06:21:52.762Z,1.33
2019-02-23T06:24:09.204Z,1.73
2019-02-23T06:26:36.557Z,1.50
2019-02-23T06:29:04.478Z,1.80
2019-02-23T06:31:31.897Z,1.80
2019-02-23T06:33:59.277Z,1.40
2019-02-23T06:36:26.590Z,1.80
2019-02-23T06:38:53.776Z,1.30
2019-02-23T06:41:21.159Z,1.50
2019-02-23T06:43:48.484Z,1.67
2019-02-23T06:46:15.910Z,2.00
2019-02-23T06:48:43.402Z,1.87
2019-02-23T06:51:10.830Z,1.70
2019-02-23T06:53:38.506Z,2.07
2019-02-23T06:56:05.988Z,1.70
2019-02-23T06:58:33.451Z,2.10
2019-02-23T07:01:00.761Z,1.90
2019-02-23T07:03:29.172Z,1.90
2019-02-23T07:05:56.538Z,1.60
2019-02-23T07:08:23.861Z,1.70
2019-02-23T07:10:51.256Z,1.90
2019-02-23T07:13:18.681Z,1.83
2019-02-23T07:15:46.357Z,1.80
2019-02-23T07:18:13.507Z,1.90
2019-02-23T07:20:44.370Z,1.67
2019-02-23T07:23:09.840Z,2.07
2019-02-23T07:25:37.138Z,1.80
2019-02-23T07:28:04.426Z,1.90
2019-02-23T07:30:31.721Z,1.73
2019-02-23T07:32:59.063Z,1.60
2019-02-23T07:35:26.362Z,1.90
2019-02-23T07:37:53.777Z,1.70
2019-02-23T07:40:21.083Z,1.87
2019-02-23T07:42:49.007Z,2.03
2019-02-23T07:45:16.303Z,1.87
2019-02-23T07:47:43.617Z,2.10
2019-02-23T07:50:11.243Z,2.00
2019-02-23T07:52:39.017Z,1.90
2019-02-23T07:55:06.326Z,1.80
2019-02-23T07:57:33.663Z,1.80
2019-02-23T08:00:00.967Z,2.00
2019-02-23T08:02:28.270Z,2.17
2019-02-23T08:04:55.657Z,2.10
2019-02-23T08:07:22.957Z,1.90
2019-02-23T08:09:50.279Z,1.97
2019-02-23T08:12:17.589Z,1.80
2019-02-23T08:14:44.903Z,2.10
2019-02-23T08:17:12.332Z,1.97
2019-02-23T08:19:40.155Z,1.93
2019-02-23T08:22:08.504Z,2.10
2019-02-23T08:24:37.363Z,2.03
2019-02-23T08:27:05.044Z,2.20
2019-02-23T08:29:32.450Z,1.73
2019-02-23T08:32:00.580Z,2.07
2019-02-23T08:34:28.112Z,1.87
2019-02-23T08:36:55.336Z,1.87
2019-02-23T08:39:23.167Z,1.87
2019-02-23T08:41:52.533Z,2.00
2019-02-23T08:44:20.661Z,2.00
2019-02-23T08:46:47.960Z,1.93
2019-02-23T08:49:15.156Z,2.20
2019-02-23T08:51:43.881Z,2.33
2019-02-23T08:54:11.120Z,1.80
2019-02-23T08:56:39.685Z,1.80
2019-02-23T08:59:07.005Z,1.93
2019-02-23T09:01:34.197Z,1.80
2019-02-23T09:04:01.632Z,2.17
2019-02-23T09:06:28.946Z,1.80
2019-02-23T09:08:56.273Z,1.73
2019-02-23T09:11:23.596Z,1.90
2019-02-23T09:13:50.998Z,1.80
2019-02-23T09:16:18.530Z,1.87
2019-02-23T09:18:45.962Z,1.93
2019-02-23T09:21:15.272Z,1.77
2019-02-23T09:23:42.752Z,2.03
2019-02-23T09:26:10.296Z,2.00
2019-02-23T09:28:37.780Z,2.00
2019-02-23T09:31:05.073Z,1.77
2019-02-23T09:33:32.363Z,1.93
2019-02-23T09:35:59.581Z,1.90
2019-02-23T09:38:26.765Z,1.80
2019-02-23T09:40:54.600Z,2.03
2019-02-23T09:43:22.350Z,1.90
2019-02-23T09:45:49.915Z,2.00
2019-02-23T09:48:17.281Z,1.90
2019-02-23T09:50:44.636Z,2.20
2019-02-23T09:53:12.439Z,2.10
2019-02-23T09:55:40.217Z,2.23
2019-02-23T09:58:07.603Z,1.80
2019-02-23T10:00:34.811Z,2.20
2019-02-23T10:03:02.121Z,1.77
2019-02-23T10:05:29.639Z,2.40
2019-02-23T10:07:56.928Z,2.10
2019-02-23T10:10:24.138Z,2.10
2019-02-23T10:12:52.532Z,1.47
2019-02-23T10:15:19.997Z,2.13
2019-02-23T10:17:47.331Z,1.73
2019-02-23T10:20:14.640Z,2.17
2019-02-23T10:22:41.933Z,1.93
2019-02-23T10:25:09.567Z,1.80
2019-02-23T10:27:36.931Z,2.00
2019-02-23T10:30:05.065Z,2.40
2019-02-23T10:32:32.561Z,1.87
2019-02-23T10:35:00.240Z,1.77
2019-02-23T10:37:28.769Z,1.80
2019-02-23T10:39:56.371Z,2.20
2019-02-23T10:42:23.689Z,1.97
2019-02-23T10:44:51.084Z,2.00
2019-02-23T10:47:18.414Z,1.80
2019-02-23T10:49:45.843Z,2.00
2019-02-23T10:52:14.367Z,2.37
2019-02-23T10:54:41.696Z,1.47
2019-02-23T10:57:09.018Z,2.10
2019-02-23T10:59:36.513Z,1.90
2019-02-23T11:02:03.821Z,1.70
2019-02-23T11:04:31.171Z,1.80
2019-02-23T11:06:58.713Z,1.80
2019-02-23T11:09:30.792Z,1.90
2019-02-23T11:11:58.194Z,1.90
2019-02-23T11:14:25.365Z,1.70
2019-02-23T11:16:52.730Z,1.80
2019-02-23T11:19:19.913Z,1.87
2019-02-23T11:21:47.233Z,1.90
2019-02-23T11:24:14.532Z,1.83
2019-02-23T11:26:41.825Z,1.70
2019-02-23T11:29:10.193Z,2.10
2019-02-23T11:31:38.140Z,1.80
2019-02-23T11:34:05.463Z,1.63
2019-02-23T11:36:32.680Z,1.70
2019-02-23T11:39:00.435Z,2.00
2019-02-23T11:41:27.577Z,1.77
2019-02-23T11:44:12.657Z,2.10
2019-02-23T11:46:40.112Z,1.60
2019-02-23T11:49:08.348Z,1.80
2019-02-23T11:51:35.665Z,1.90
2019-02-23T11:54:03.083Z,1.80
2019-02-23T11:56:30.420Z,1.90
2019-02-23T11:58:57.878Z,1.77
2019-02-23T12:01:25.480Z,1.97
2019-02-23T12:03:52.786Z,1.67
2019-02-23T12:06:20.142Z,1.73
2019-02-23T12:08:47.419Z,1.90
2019-02-23T12:11:14.860Z,1.70
2019-02-23T12:13:42.392Z,1.73
2019-02-23T12:16:09.764Z,2.10
2019-02-23T12:18:38.598Z,1.60
2019-02-23T12:21:06.040Z,1.60
2019-02-23T12:23:35.397Z,1.70
2019-02-23T12:26:04.659Z,2.00
2019-02-23T12:28:32.180Z,1.90
2019-02-23T12:31:00.497Z,1.83
2019-02-23T12:33:28.429Z,1.67
2019-02-23T12:36:01.040Z,1.93
2019-02-23T12:38:29.240Z,1.63
2019-02-23T12:40:58.116Z,1.87
2019-02-23T12:43:29.238Z,1.90
2019-02-23T12:45:57.753Z,1.63
2019-02-23T12:48:25.041Z,1.67
2019-02-23T12:51:01.655Z,1.70
2019-02-23T12:53:29.297Z,1.60
2019-02-23T12:55:58.284Z,1.67
2019-02-23T12:58:26.103Z,1.80
2019-02-23T13:00:53.309Z,1.83
2019-02-23T13:03:23.605Z,2.00
2019-02-23T13:05:50.902Z,1.70
2019-02-23T13:08:18.209Z,1.37
2019-02-23T13:10:46.753Z,1.60
2019-02-23T13:13:43.865Z,1.80
2019-02-23T13:16:18.889Z,2.17
2019-02-23T13:19:13.266Z,1.63
2019-02-23T13:22:11.573Z,1.80
2019-02-23T13:25:25.045Z,1.73
2019-02-23T13:28:06.045Z,1.70
2019-02-23T13:31:23.677Z,1.63
2019-02-23T13:34:33.394Z,1.60
2019-02-23T13:37:27.464Z,1.90
2019-02-23T13:40:48.716Z,1.63
2019-02-23T13:44:10.065Z,1.70
2019-02-23T13:47:26.736Z,1.40
2019-02-23T13:50:25.372Z,1.50
2019-02-23T13:53:20.240Z,1.80
2019-02-23T13:56:35.621Z,1.80
2019-02-23T13:59:53.856Z,1.83
2019-02-23T14:03:11.768Z,2.00
2019-02-23T14:06:10.576Z,1.60
2019-02-23T14:09:09.449Z,1.77
2019-02-23T14:12:19.366Z,2.10
2019-02-23T14:15:17.327Z,1.73
2019-02-23T14:18:41.848Z,1.60
2019-02-23T14:21:41.021Z,1.40
2019-02-23T14:24:51.469Z,1.47
2019-02-23T14:27:51.621Z,1.60
2019-02-23T14:30:51.964Z,1.60
2019-02-23T14:34:09.156Z,1.80
2019-02-23T14:37:26.393Z,1.70
2019-02-23T14:40:40.616Z,1.70
2019-02-23T14:43:50.750Z,1.50
2019-02-23T14:46:53.140Z,1.67
2019-02-23T14:50:01.005Z,1.63
2019-02-23T14:52:41.316Z,1.50
2019-02-23T14:55:27.000Z,1.73
2019-02-23T14:58:33.318Z,1.70
2019-02-23T15:01:31.312Z,1.53
2019-02-23T15:04:27.210Z,1.37
2019-02-23T15:07:38.182Z,1.70
2019-02-23T15:10:45.288Z,1.50
2019-02-23T15:13:44.501Z,1.83
2019-02-23T15:16:41.548Z,1.40
2019-02-23T15:19:37.053Z,1.60
2019-02-23T15:22:38.556Z,1.50
2019-02-23T15:25:50.817Z,1.70
2019-02-23T15:28:48.229Z,1.60
2019-02-23T15:31:31.693Z,2.00
2019-02-23T15:34:18.647Z,1.97
2019-02-23T15:37:03.917Z,1.50
2019-02-23T15:40:24.945Z,1.43
2019-02-23T15:43:34.084Z,1.97
2019-02-23T15:46:30.057Z,1.30
2019-02-23T15:49:29.782Z,1.63
2019-02-23T15:51:57.711Z,1.40
2019-02-23T15:54:24.924Z,1.70
2019-02-23T15:56:52.369Z,1.73
2019-02-23T15:59:19.756Z,1.60
2019-02-23T16:01:47.065Z,1.37
2019-02-23T16:04:14.673Z,1.63
2019-02-23T16:06:42.288Z,1.70
2019-02-23T16:09:09.580Z,1.50
2019-02-23T16:11:37.023Z,1.70
2019-02-23T16:14:04.637Z,1.70
2019-02-23T16:16:32.537Z,1.73
2019-02-23T16:19:00.022Z,1.57
2019-02-23T16:21:27.609Z,1.50
2019-02-23T16:23:54.945Z,1.43
2019-02-23T16:26:22.305Z,1.40
2019-02-23T16:28:49.615Z,1.40
2019-02-23T16:31:17.226Z,1.40
2019-02-23T16:33:45.725Z,1.40
2019-02-23T16:36:13.076Z,1.37
2019-02-23T16:38:40.605Z,1.90
2019-02-23T16:41:07.912Z,1.80
2019-02-23T16:43:35.375Z,1.70
2019-02-23T16:46:02.688Z,1.80
2019-02-23T16:48:30.124Z,1.70
2019-02-23T16:50:57.529Z,1.70
2019-02-23T16:53:25.329Z,1.80
2019-02-23T16:55:52.740Z,1.80
2019-02-23T16:58:20.012Z,1.87
2019-02-23T17:00:47.208Z,2.00
2019-02-23T17:03:14.704Z,1.80
2019-02-23T17:05:41.901Z,1.73
2019-02-23T17:08:09.130Z,2.07
2019-02-23T17:10:37.204Z,2.07
2019-02-23T17:13:04.939Z,1.93
2019-02-23T17:15:32.113Z,1.90
2019-02-23T17:17:59.323Z,1.87
2019-02-23T17:20:26.673Z,1.87
2019-02-23T17:22:53.988Z,1.50
2019-02-23T17:25:21.202Z,1.73
2019-02-23T17:27:48.508Z,1.80
2019-02-23T17:30:16.013Z,2.03
2019-02-23T17:32:43.227Z,1.60
2019-02-23T17:35:10.492Z,1.70
2019-02-23T17:37:38.614Z,1.70
2019-02-23T17:40:06.028Z,2.27
2019-02-23T17:42:33.336Z,1.90
2019-02-23T17:45:00.633Z,1.87
2019-02-23T17:47:27.816Z,1.70
2019-02-23T17:49:55.116Z,1.83
2019-02-23T17:52:22.324Z,1.70
2019-02-23T17:54:49.628Z,1.87
2019-02-23T17:57:16.808Z,1.90
2019-02-23T17:59:44.164Z,2.00
2019-02-23T18:02:11.420Z,1.80
2019-02-23T18:04:39.529Z,1.90
2019-02-23T18:07:06.852Z,1.67
2019-02-23T18:09:34.136Z,2.00
2019-02-23T18:12:01.393Z,1.73
2019-02-23T18:14:28.745Z,2.23
2019-02-23T18:16:55.933Z,1.77
2019-02-23T18:19:23.117Z,1.60
2019-02-23T18:21:50.394Z,1.93
2019-02-23T18:24:17.723Z,1.73
2019-02-23T18:26:44.939Z,2.00
2019-02-23T18:29:12.236Z,1.80
2019-02-23T18:31:39.756Z,2.00
2019-02-23T18:34:07.035Z,2.00
2019-02-23T18:36:34.472Z,2.00
2019-02-23T18:39:01.801Z,1.90
2019-02-23T18:41:30.916Z,1.93
2019-02-23T18:43:58.353Z,1.80
2019-02-23T18:46:25.642Z,1.80
2019-02-23T18:48:53.187Z,1.90
2019-02-23T18:51:20.460Z,1.50
2019-02-23T18:53:47.776Z,1.73
2019-02-23T18:56:14.952Z,1.70
2019-02-23T18:58:43.464Z,2.00
2019-02-23T19:01:10.753Z,2.00
2019-02-23T19:03:38.620Z,2.10
2019-02-23T19:06:06.098Z,1.87
2019-02-23T19:08:33.728Z,1.67
2019-02-23T19:11:01.063Z,1.73
2019-02-23T19:13:29.392Z,1.70
2019-02-23T19:15:56.709Z,1.67
2019-02-23T19:18:24.012Z,1.67
2019-02-23T19:20:52.189Z,1.80
2019-02-23T19:23:19.688Z,1.83
2019-02-23T19:25:46.860Z,2.10
2019-02-23T19:28:14.060Z,2.03
2019-02-23T19:30:41.445Z,1.80
2019-02-23T19:33:08.804Z,1.70
2019-02-23T19:35:35.972Z,1.83
2019-02-23T19:38:03.256Z,1.60
2019-02-23T19:40:30.528Z,1.90
2019-02-23T19:42:57.704Z,1.87
2019-02-23T19:45:25.032Z,1.70
2019-02-23T19:47:52.240Z,1.70
2019-02-23T19:50:22.901Z,1.77
2019-02-23T19:52:50.070Z,2.00
2019-02-23T19:55:17.359Z,1.73
2019-02-23T19:57:44.897Z,1.50
2019-02-23T20:00:13.101Z,1.80
2019-02-23T20:02:40.740Z,2.07
2019-02-23T20:05:08.352Z,1.93
2019-02-23T20:07:36.754Z,1.93
2019-02-23T20:10:05.191Z,1.73
2019-02-23T20:12:32.564Z,1.80
2019-02-23T20:15:00.096Z,2.03
2019-02-23T20:17:27.344Z,1.87
2019-02-23T20:19:54.653Z,2.17
2019-02-23T20:22:21.957Z,1.73
2019-02-23T20:24:49.271Z,1.73
2019-02-23T20:27:16.471Z,1.67
2019-02-23T20:29:43.772Z,1.70
2019-02-23T20:32:11.061Z,1.67
2019-02-23T20:34:39.016Z,1.90
2019-02-23T20:37:06.197Z,1.93
2019-02-23T20:39:33.612Z,2.00
2019-02-23T20:42:01.018Z,1.77
2019-02-23T20:44:28.314Z,1.90
2019-02-23T20:46:56.630Z,1.87
2019-02-23T20:49:24.175Z,1.70
2019-02-23T20:51:51.399Z,1.60
2019-02-23T20:54:18.728Z,1.97
2019-02-23T20:56:45.897Z,1.83
2019-02-23T20:59:13.252Z,1.80
2019-02-23T21:01:40.552Z,2.00
2019-02-23T21:04:07.880Z,1.73
2019-02-23T21:06:35.161Z,1.93
2019-02-23T21:09:03.001Z,2.23
2019-02-23T21:11:33.318Z,1.60
2019-02-23T21:14:02.645Z,1.73
2019-02-23T21:16:31.469Z,1.60
2019-02-23T21:19:00.161Z,2.10
2019-02-23T21:21:29.300Z,1.43
2019-02-23T21:23:57.982Z,1.90
2019-02-23T21:26:25.409Z,1.60
2019-02-23T21:28:52.683Z,2.00
2019-02-23T21:31:20.322Z,1.97
2019-02-23T21:33:47.566Z,1.70
2019-02-23T21:36:17.672Z,1.93
2019-02-23T21:38:46.728Z,1.83
2019-02-23T21:41:15.078Z,1.60
2019-02-23T21:43:45.284Z,1.80
2019-02-23T21:46:13.960Z,1.87
2019-02-23T21:48:44.550Z,1.80
2019-02-23T21:51:13.958Z,1.80
2019-02-23T21:53:43.283Z,1.80
2019-02-23T21:56:14.063Z,2.10
2019-02-23T21:58:42.418Z,1.63
2019-02-23T22:01:11.184Z,1.83
2019-02-23T22:03:39.267Z,1.70
2019-02-23T22:06:06.601Z,1.80
2019-02-23T22:08:35.726Z,1.83
2019-02-23T22:11:04.756Z,2.00
2019-02-23T22:13:33.430Z,1.90
2019-02-23T22:16:00.853Z,1.90
2019-02-23T22:18:32.613Z,2.00
2019-02-23T22:21:02.221Z,1.70
2019-02-23T22:23:31.259Z,1.80
2019-02-23T22:25:59.367Z,1.80
2019-02-23T22:28:28.140Z,1.80
2019-02-23T22:30:55.511Z,1.60
2019-02-23T22:33:24.656Z,2.00
2019-02-23T22:35:54.683Z,1.73
2019-02-23T22:38:23.994Z,1.80
2019-02-23T22:40:53.125Z,1.90
2019-02-23T22:43:21.980Z,1.83
2019-02-23T22:45:50.886Z,2.00
2019-02-23T22:48:18.115Z,1.60
2019-02-23T22:50:45.450Z,1.67
2019-02-23T22:53:12.773Z,1.90
2019-02-23T22:55:42.200Z,1.93
2019-02-23T22:58:10.333Z,2.03
2019-02-23T23:00:59.529Z,1.80
2019-02-23T23:03:30.509Z,2.00
2019-02-23T23:05:59.760Z,1.90
2019-02-23T23:08:28.603Z,1.90
2019-02-23T23:10:57.345Z,1.80
2019-02-23T23:13:26.359Z,1.57
2019-02-23T23:15:55.125Z,1.90
2019-02-23T23:18:24.263Z,1.73
2019-02-23T23:20:53.012Z,1.93
2019-02-23T23:23:22.552Z,1.80
2019-02-23T23:25:53.615Z,1.83
2019-02-23T23:28:22.945Z,2.07
2019-02-23T23:30:51.762Z,1.73
2019-02-23T23:33:21.537Z,1.70
2019-02-23T23:35:49.199Z,1.80
2019-02-23T23:38:16.327Z,2.00
2019-02-23T23:40:44.025Z,1.83
2019-02-23T23:43:11.309Z,2.20
2019-02-23T23:45:40.958Z,1.87
2019-02-23T23:48:08.303Z,1.80
2019-02-23T23:50:35.604Z,2.00
2019-02-23T23:53:02.872Z,1.97
2019-02-23T23:55:30.175Z,2.10
2019-02-23T23:57:58.599Z,1.60
